createdAt,value
2022-08-30T00:01:04.729Z,6.70
2022-08-30T00:03:47.029Z,6.35
2022-08-30T00:06:18.543Z,6.63
2022-08-30T00:08:50.356Z,7.43
2022-08-30T00:11:23.242Z,6.38
2022-08-30T00:13:54.667Z,6.32
2022-08-30T00:16:25.375Z,7.43
2022-08-30T00:18:54.991Z,6.95
2022-08-30T00:21:25.480Z,6.83
2022-08-30T00:23:55.107Z,6.57
2022-08-30T00:26:24.435Z,7.55
2022-08-30T00:28:53.797Z,7.07
2022-08-30T00:31:23.200Z,7.80
2022-08-30T00:33:52.510Z,8.10
2022-08-30T00:36:22.450Z,7.47
2022-08-30T00:38:51.742Z,9.10
2022-08-30T00:41:21.202Z,8.43
2022-08-30T00:43:50.496Z,7.63
2022-08-30T00:46:20.068Z,7.83
2022-08-30T00:48:52.083Z,6.65
2022-08-30T00:51:22.722Z,9.02
2022-08-30T00:53:56.321Z,8.13
2022-08-30T00:56:27.003Z,9.15
2022-08-30T00:58:59.178Z,8.77
2022-08-30T01:01:30.591Z,8.90
2022-08-30T01:04:03.529Z,8.85
2022-08-30T01:06:35.438Z,9.00
2022-08-30T01:09:06.124Z,9.45
2022-08-30T01:11:36.976Z,8.53
2022-08-30T01:14:07.211Z,9.43
2022-08-30T01:16:39.346Z,9.55
2022-08-30T01:19:12.376Z,10.10
2022-08-30T01:21:54.523Z,10.65
2022-08-30T01:24:23.887Z,9.60
2022-08-30T01:26:53.352Z,10.40
2022-08-30T01:29:25.113Z,11.23
2022-08-30T01:31:54.725Z,11.55
2022-08-30T01:34:24.256Z,12.00
2022-08-30T01:36:53.798Z,11.70
2022-08-30T01:39:24.648Z,12.52
2022-08-30T01:41:54.140Z,11.45
2022-08-30T01:44:23.493Z,12.05
2022-08-30T01:46:55.125Z,12.60
2022-08-30T01:49:27.674Z,12.97
2022-08-30T01:52:00.525Z,13.20
2022-08-30T01:54:33.282Z,13.63
2022-08-30T01:57:12.396Z,13.00
2022-08-30T01:59:48.857Z,15.43
2022-08-30T02:02:32.657Z,15.00
2022-08-30T02:05:02.077Z,15.43
2022-08-30T02:07:31.799Z,15.38
2022-08-30T02:10:01.410Z,13.90
2022-08-30T02:12:31.732Z,15.13
2022-08-30T02:15:01.941Z,14.23
2022-08-30T02:17:32.576Z,14.65
2022-08-30T02:20:01.940Z,15.00
2022-08-30T02:22:33.759Z,15.32
2022-08-30T02:25:03.291Z,15.25
2022-08-30T02:27:32.491Z,14.93
2022-08-30T02:30:01.793Z,14.95
2022-08-30T02:32:31.194Z,15.43
2022-08-30T02:35:00.569Z,14.93
2022-08-30T02:37:29.887Z,15.65
2022-08-30T02:39:59.209Z,15.50
2022-08-30T02:42:28.496Z,14.88
2022-08-30T02:44:58.200Z,14.88
2022-08-30T02:47:27.644Z,15.57
2022-08-30T02:49:57.093Z,15.40
2022-08-30T02:52:27.793Z,15.53
2022-08-30T02:54:57.319Z,15.43
2022-08-30T02:57:26.920Z,16.48
2022-08-30T02:59:56.279Z,15.98
2022-08-30T03:02:27.164Z,16.65
2022-08-30T03:04:56.837Z,18.10
2022-08-30T03:07:26.155Z,17.48
2022-08-30T03:09:55.618Z,17.13
2022-08-30T03:12:28.832Z,18.00
2022-08-30T03:14:58.721Z,17.75
2022-08-30T03:17:28.192Z,18.50
2022-08-30T03:19:57.539Z,18.02
2022-08-30T03:22:27.215Z,18.25
2022-08-30T03:25:00.937Z,17.65
2022-08-30T03:27:31.360Z,19.02
2022-08-30T03:30:00.779Z,19.27
2022-08-30T03:32:30.102Z,19.30
2022-08-30T03:35:02.154Z,19.35
2022-08-30T03:37:31.435Z,19.77
2022-08-30T03:40:04.766Z,19.70
2022-08-30T03:42:36.487Z,18.93
2022-08-30T03:45:08.199Z,19.98
2022-08-30T03:47:37.581Z,20.55
2022-08-30T03:50:10.943Z,21.05
2022-08-30T03:52:41.314Z,20.98
2022-08-30T03:55:10.961Z,20.90
2022-08-30T03:57:43.655Z,20.58
2022-08-30T04:00:14.690Z,20.92
2022-08-30T04:02:44.442Z,20.23
2022-08-30T04:05:14.846Z,21.13
2022-08-30T04:07:49.256Z,20.00
2022-08-30T04:10:18.817Z,19.33
2022-08-30T04:12:49.907Z,19.45
2022-08-30T04:15:22.516Z,21.02
2022-08-30T04:17:51.999Z,21.83
2022-08-30T04:20:22.532Z,21.07
2022-08-30T04:22:52.812Z,21.13
2022-08-30T04:25:22.205Z,21.48
2022-08-30T04:27:59.465Z,21.52
2022-08-30T04:30:28.875Z,21.02
2022-08-30T04:32:58.917Z,21.77
2022-08-30T04:35:33.611Z,19.75
2022-08-30T04:38:03.682Z,21.23
2022-08-30T04:40:34.504Z,21.42
2022-08-30T04:43:05.646Z,21.80
2022-08-30T04:45:35.073Z,20.83
2022-08-30T04:48:04.720Z,22.77
2022-08-30T04:50:34.391Z,22.23
2022-08-30T04:53:03.681Z,22.25
2022-08-30T04:55:33.087Z,22.73
2022-08-30T04:58:03.514Z,21.63
2022-08-30T05:00:38.706Z,23.35
2022-08-30T05:03:08.150Z,23.80
2022-08-30T05:05:46.721Z,24.08
2022-08-30T05:08:23.245Z,24.08
2022-08-30T05:10:54.514Z,23.83
2022-08-30T05:13:26.277Z,24.50
2022-08-30T05:16:06.497Z,25.58
2022-08-30T05:18:39.615Z,25.98
2022-08-30T05:21:38.179Z,26.10
2022-08-30T05:24:08.192Z,27.57
2022-08-30T05:26:41.954Z,26.50
2022-08-30T05:29:11.353Z,26.75
2022-08-30T05:31:42.241Z,29.23
2022-08-30T05:34:12.047Z,26.85
2022-08-30T05:36:44.571Z,27.80
2022-08-30T05:39:13.891Z,27.92
2022-08-30T05:41:44.455Z,30.15
2022-08-30T05:44:21.907Z,31.13
2022-08-30T05:46:54.064Z,36.33
2022-08-30T05:49:23.538Z,36.20
2022-08-30T05:51:52.789Z,38.20
2022-08-30T05:54:22.091Z,39.78
2022-08-30T05:56:51.432Z,40.85
2022-08-30T05:59:23.050Z,42.78
2022-08-30T06:01:55.511Z,44.27
2022-08-30T06:04:24.986Z,43.75
2022-08-30T06:06:56.037Z,49.05
2022-08-30T06:09:25.474Z,46.47
2022-08-30T06:11:56.530Z,48.90
2022-08-30T06:14:26.491Z,46.63
2022-08-30T06:16:56.025Z,48.30
2022-08-30T06:19:25.404Z,49.00
2022-08-30T06:21:54.877Z,50.25
2022-08-30T06:24:35.716Z,50.35
2022-08-30T06:27:13.868Z,49.63
2022-08-30T06:29:43.093Z,51.80
2022-08-30T06:32:12.373Z,52.05
2022-08-30T06:34:45.205Z,50.65
2022-08-30T06:37:29.140Z,50.60
2022-08-30T06:40:00.590Z,50.27
2022-08-30T06:42:33.340Z,50.60
2022-08-30T06:45:10.423Z,52.33
2022-08-30T06:47:42.073Z,50.65
2022-08-30T06:50:17.375Z,51.80
2022-08-30T06:52:47.556Z,51.30
2022-08-30T06:55:23.373Z,51.88
2022-08-30T06:57:54.271Z,50.80
2022-08-30T07:00:26.994Z,49.95
2022-08-30T07:02:59.579Z,50.28
2022-08-30T07:05:31.443Z,49.83
2022-08-30T07:08:00.716Z,48.33
2022-08-30T07:10:30.540Z,50.20
2022-08-30T07:13:01.508Z,48.90
2022-08-30T07:15:31.011Z,49.00
2022-08-30T07:18:25.434Z,46.83
2022-08-30T07:20:55.265Z,47.40
2022-08-30T07:23:24.988Z,45.88
2022-08-30T07:25:54.397Z,46.88
2022-08-30T07:28:23.928Z,47.72
2022-08-30T07:30:56.055Z,45.50
2022-08-30T07:33:25.483Z,45.83
2022-08-30T07:35:54.833Z,46.97
2022-08-30T07:38:24.384Z,45.58
2022-08-30T07:40:56.002Z,43.90
2022-08-30T07:43:26.548Z,42.33
2022-08-30T07:45:59.342Z,44.13
2022-08-30T07:48:28.680Z,41.83
2022-08-30T07:51:04.568Z,40.55
2022-08-30T07:53:37.154Z,41.50
2022-08-30T07:56:06.615Z,41.60
2022-08-30T07:58:36.407Z,42.17
2022-08-30T08:01:07.590Z,41.20
2022-08-30T08:03:36.830Z,40.30
2022-08-30T08:06:08.229Z,40.88
2022-08-30T08:08:40.244Z,36.40
2022-08-30T08:11:18.986Z,37.97
2022-08-30T08:13:53.982Z,38.60
2022-08-30T08:16:27.490Z,37.95
2022-08-30T08:18:57.580Z,36.10
2022-08-30T08:21:27.781Z,36.83
2022-08-30T08:23:57.903Z,36.13
2022-08-30T08:26:28.916Z,35.67
2022-08-30T08:28:59.577Z,35.10
2022-08-30T08:31:33.387Z,34.70
2022-08-30T08:34:05.998Z,35.00
2022-08-30T08:36:36.942Z,31.50
2022-08-30T08:39:08.573Z,32.35
2022-08-30T08:42:21.766Z,32.75
2022-08-30T08:44:54.802Z,31.40
2022-08-30T08:47:32.400Z,28.67
2022-08-30T08:50:04.663Z,29.45
2022-08-30T08:53:07.883Z,29.25
2022-08-30T08:55:38.760Z,28.77
2022-08-30T08:58:10.886Z,28.65
2022-08-30T09:00:41.485Z,29.63
2022-08-30T09:03:12.859Z,28.45
2022-08-30T09:05:42.971Z,27.55
2022-08-30T09:08:16.431Z,27.48
2022-08-30T09:11:03.456Z,27.48
2022-08-30T09:13:32.798Z,27.60
2022-08-30T09:16:02.615Z,27.00
2022-08-30T09:18:52.698Z,28.10
2022-08-30T09:21:26.889Z,25.45
2022-08-30T09:24:01.830Z,24.92
2022-08-30T09:26:38.916Z,24.27
2022-08-30T09:29:10.544Z,23.67
2022-08-30T09:32:16.158Z,25.15
2022-08-30T09:34:45.995Z,23.98
2022-08-30T09:37:31.340Z,22.92
2022-08-30T09:40:00.983Z,22.30
2022-08-30T09:42:32.463Z,21.48
2022-08-30T09:45:14.322Z,22.98
2022-08-30T09:47:45.538Z,21.83
2022-08-30T09:50:24.476Z,21.90
2022-08-30T09:53:19.895Z,21.70
2022-08-30T09:56:06.212Z,20.17
2022-08-30T09:58:59.450Z,20.20
2022-08-30T10:01:55.602Z,19.30
2022-08-30T10:04:52.099Z,20.75
2022-08-30T10:07:28.913Z,20.37
2022-08-30T10:10:12.879Z,18.65
2022-08-30T10:12:47.904Z,19.60
2022-08-30T10:15:51.154Z,18.48
2022-08-30T10:18:47.637Z,19.25
2022-08-30T10:21:40.020Z,19.20
2022-08-30T10:24:33.370Z,19.20
2022-08-30T10:27:13.119Z,17.38
2022-08-30T10:30:15.513Z,17.20
2022-08-30T10:32:56.854Z,17.40
2022-08-30T10:35:58.306Z,17.93
2022-08-30T10:38:36.672Z,17.63
2022-08-30T10:41:15.682Z,17.45
2022-08-30T10:44:17.503Z,16.35
2022-08-30T10:47:23.396Z,16.42
2022-08-30T10:49:58.005Z,14.93
2022-08-30T10:52:33.516Z,16.08
2022-08-30T10:55:20.012Z,15.88
2022-08-30T10:57:49.677Z,14.90
2022-08-30T11:00:45.268Z,14.75
2022-08-30T11:03:29.987Z,15.00
2022-08-30T11:06:29.413Z,14.30
2022-08-30T11:09:18.028Z,15.55
2022-08-30T11:11:56.606Z,14.82
2022-08-30T11:14:28.211Z,13.90
2022-08-30T11:16:59.101Z,13.10
2022-08-30T11:19:40.816Z,12.75
2022-08-30T11:22:28.164Z,13.35
2022-08-30T11:25:10.175Z,12.88
2022-08-30T11:27:52.247Z,12.38
2022-08-30T11:30:28.140Z,12.70
2022-08-30T11:33:08.405Z,12.63
2022-08-30T11:35:53.907Z,12.98
2022-08-30T11:38:32.065Z,11.90
2022-08-30T11:41:15.427Z,12.15
2022-08-30T11:43:44.898Z,12.53
2022-08-30T11:46:20.451Z,11.95
2022-08-30T11:49:08.164Z,11.50
2022-08-30T11:55:01.328Z,11.57
2022-08-30T11:57:33.567Z,11.17
2022-08-30T12:00:34.225Z,11.18
2022-08-30T12:03:09.874Z,11.32
2022-08-30T12:05:42.421Z,10.93
2022-08-30T12:08:13.744Z,11.15
2022-08-30T12:10:52.085Z,11.57
2022-08-30T12:13:39.777Z,10.63
2022-08-30T12:16:13.093Z,10.80
2022-08-30T12:18:47.982Z,10.48
2022-08-30T12:21:21.451Z,10.80
2022-08-30T12:23:54.942Z,10.20
2022-08-30T12:26:28.329Z,10.30
2022-08-30T12:29:25.345Z,10.90
2022-08-30T12:32:20.469Z,9.50
2022-08-30T12:35:02.401Z,9.80
2022-08-30T12:37:38.534Z,9.90
2022-08-30T12:40:21.921Z,8.98
2022-08-30T12:43:05.549Z,9.98
2022-08-30T12:45:50.981Z,9.18
2022-08-30T12:48:21.918Z,9.48
2022-08-30T12:51:01.881Z,8.20
2022-08-30T12:53:41.947Z,8.57
2022-08-30T12:56:49.567Z,8.35
2022-08-30T12:59:56.762Z,8.30
2022-08-30T13:02:46.639Z,8.95
2022-08-30T13:05:44.350Z,8.33
2022-08-30T13:08:23.106Z,8.13
2022-08-30T13:10:58.162Z,7.85
2022-08-30T13:13:34.564Z,7.63
2022-08-30T13:16:39.509Z,7.68
